Time,TemperatureF,DewpointF,PressureIn,WindDirection,WindDirectionDegrees,WindSpeedMPH,WindSpeedGustMPH,Humidity,HourlyPrecipIn,Conditions,Clouds,dailyrainin,SolarRadiationWatts/m^2,SoftwareType,DateUTC
2013-08-10 00:02:00,60.0,43.0,-100.00,NE,39,5.0,11.0,54,0.00,,,0.00,0.000000,,2013-08-10 06:02:00,
2013-08-10 00:11:00,60.0,43.0,-100.00,NE,39,5.0,11.0,54,0.00,,,0.00,0.000000,,2013-08-10 06:11:00,
2013-08-10 00:22:00,60.0,43.0,-100.00,NE,39,5.0,11.0,54,0.00,,,0.00,0.000000,,2013-08-10 06:22:00,
2013-08-10 00:32:00,60.0,43.0,-100.00,NE,39,5.0,11.0,54,0.00,,,0.00,0.000000,,2013-08-10 06:32:00,
2013-08-10 00:53:00,60.0,43.0,-100.00,ENE,58,6.0,10.0,53,0.00,,,0.00,0.000000,,2013-08-10 06:53:00,
2013-08-10 01:02:00,60.0,43.0,-100.00,ENE,58,6.0,10.0,53,0.00,,,0.00,0.000000,,2013-08-10 07:02:00,
2013-08-10 01:12:00,60.0,43.0,-100.00,ENE,58,6.0,10.0,53,0.00,,,0.00,0.000000,,2013-08-10 07:12:00,
2013-08-10 01:22:00,60.0,43.0,-100.00,ENE,58,6.0,10.0,53,0.00,,,0.00,0.000000,,2013-08-10 07:22:00,
2013-08-10 01:33:00,60.0,43.0,-100.00,ENE,58,6.0,10.0,53,0.00,,,0.00,0.000000,,2013-08-10 07:33:00,
2013-08-10 01:52:00,59.0,42.0,-100.00,East,81,7.0,10.0,54,0.00,,,0.00,0.000000,,2013-08-10 07:52:00,
2013-08-10 02:01:00,59.0,42.0,-100.00,East,81,7.0,10.0,54,0.00,,,0.00,0.000000,,2013-08-10 08:01:00,
2013-08-10 02:12:00,59.0,42.0,-100.00,East,81,7.0,10.0,54,0.00,,,0.00,0.000000,,2013-08-10 08:12:00,
2013-08-10 02:22:00,59.0,42.0,-100.00,East,81,7.0,10.0,54,0.00,,,0.00,0.000000,,2013-08-10 08:22:00,
2013-08-10 02:32:00,59.0,42.0,-100.00,East,81,7.0,10.0,54,0.00,,,0.00,0.000000,,2013-08-10 08:32:00,
2013-08-10 02:53:00,57.0,43.0,-100.00,East,80,8.0,10.0,59,0.00,,,0.00,0.000000,,2013-08-10 08:53:00,
2013-08-10 03:02:00,57.0,43.0,-100.00,East,80,8.0,10.0,59,0.00,,,0.00,0.000000,,2013-08-10 09:02:00,
2013-08-10 03:12:00,57.0,43.0,-100.00,East,80,8.0,10.0,59,0.00,,,0.00,0.000000,,2013-08-10 09:12:00,
2013-08-10 03:22:00,57.0,43.0,-100.00,East,80,8.0,10.0,59,0.00,,,0.00,0.000000,,2013-08-10 09:22:00,
2013-08-10 03:32:00,57.0,43.0,-100.00,East,80,8.0,10.0,59,0.00,,,0.00,0.000000,,2013-08-10 09:32:00,
2013-08-10 03:52:00,56.0,44.0,-100.00,ENE,72,8.0,12.0,64,0.00,,,0.00,0.000000,,2013-08-10 09:52:00,
2013-08-10 04:02:00,56.0,44.0,-100.00,ENE,72,8.0,12.0,64,0.00,,,0.00,0.000000,,2013-08-10 10:02:00,
2013-08-10 04:11:00,56.0,44.0,-100.00,ENE,72,8.0,12.0,64,0.00,,,0.00,0.000000,,2013-08-10 10:11:00,
2013-08-10 04:22:00,56.0,44.0,-100.00,ENE,72,8.0,12.0,64,0.00,,,0.00,0.000000,,2013-08-10 10:22:00,
2013-08-10 04:33:00,56.0,44.0,-100.00,ENE,72,8.0,12.0,64,0.00,,,0.00,0.000000,,2013-08-10 10:33:00,
2013-08-10 04:53:00,55.0,43.0,-100.00,ENE,65,7.0,11.0,63,0.00,,,0.00,0.000000,,2013-08-10 10:53:00,
2013-08-10 05:02:00,55.0,43.0,-100.00,ENE,65,7.0,11.0,63,0.00,,,0.00,0.000000,,2013-08-10 11:02:00,
2013-08-10 05:11:00,55.0,43.0,-100.00,ENE,65,7.0,11.0,63,0.00,,,0.00,0.000000,,2013-08-10 11:11:00,
2013-08-10 05:22:00,55.0,43.0,-100.00,ENE,65,7.0,11.0,63,0.00,,,0.00,0.000000,,2013-08-10 11:22:00,
2013-08-10 05:33:00,55.0,43.0,-100.00,ENE,65,7.0,11.0,63,0.00,,,0.00,0.000000,,2013-08-10 11:33:00,
2013-08-10 07:52:00,59.0,43.0,-100.00,ENE,63,6.0,11.0,56,-99.99,,,0.00,123.000000,,2013-08-10 13:52:00,
2013-08-10 08:02:00,59.0,43.0,-100.00,ENE,63,6.0,11.0,56,-99.99,,,0.00,123.000000,,2013-08-10 14:02:00,
2013-08-10 08:12:00,59.0,43.0,-100.00,ENE,63,6.0,11.0,56,-99.99,,,0.00,123.000000,,2013-08-10 14:12:00,
2013-08-10 08:22:00,59.0,43.0,-100.00,ENE,63,6.0,11.0,56,-99.99,,,0.00,123.000000,,2013-08-10 14:22:00,
2013-08-10 08:32:00,59.0,43.0,-100.00,ENE,63,6.0,11.0,56,-99.99,,,0.00,123.000000,,2013-08-10 14:32:00,
2013-08-10 08:53:00,61.0,43.0,-100.00,ENE,60,8.0,12.0,51,0.00,,,0.00,331.000000,,2013-08-10 14:53:00,
2013-08-10 09:02:00,61.0,43.0,-100.00,ENE,60,8.0,12.0,51,0.00,,,0.00,331.000000,,2013-08-10 15:02:00,
2013-08-10 09:11:00,61.0,43.0,-100.00,ENE,60,8.0,12.0,51,0.00,,,0.00,331.000000,,2013-08-10 15:11:00,
2013-08-10 09:22:00,61.0,43.0,-100.00,ENE,60,8.0,12.0,51,0.00,,,0.00,331.000000,,2013-08-10 15:22:00,
2013-08-10 09:33:00,61.0,43.0,-100.00,ENE,60,8.0,12.0,51,0.00,,,0.00,331.000000,,2013-08-10 15:33:00,
2013-08-10 09:52:00,66.0,43.0,-100.00,NE,44,5.0,15.0,43,0.00,,,0.00,479.000000,,2013-08-10 15:52:00,
2013-08-10 10:01:00,66.0,43.0,-100.00,NE,44,5.0,15.0,43,0.00,,,0.00,479.000000,,2013-08-10 16:01:00,
2013-08-10 10:11:00,66.0,43.0,-100.00,NE,44,5.0,15.0,43,0.00,,,0.00,479.000000,,2013-08-10 16:11:00,
2013-08-10 10:22:00,66.0,43.0,-100.00,NE,44,5.0,15.0,43,0.00,,,0.00,479.000000,,2013-08-10 16:22:00,
2013-08-10 10:32:00,66.0,43.0,-100.00,NE,44,5.0,15.0,43,0.00,,,0.00,479.000000,,2013-08-10 16:32:00,
2013-08-10 10:53:00,73.0,41.0,-100.00,SSW,210,1.0,7.0,32,0.00,,,0.00,699.000000,,2013-08-10 16:53:00,
2013-08-10 11:02:00,73.0,41.0,-100.00,SSW,210,1.0,7.0,32,0.00,,,0.00,699.000000,,2013-08-10 17:02:00,
2013-08-10 11:12:00,73.0,41.0,-100.00,SSW,210,1.0,7.0,32,0.00,,,0.00,699.000000,,2013-08-10 17:12:00,
2013-08-10 11:22:00,73.0,41.0,-100.00,SSW,210,1.0,7.0,32,0.00,,,0.00,699.000000,,2013-08-10 17:22:00,
2013-08-10 11:33:00,73.0,41.0,-100.00,SSW,210,1.0,7.0,32,0.00,,,0.00,699.000000,,2013-08-10 17:33:00,
2013-08-10 11:52:00,74.0,37.0,-100.00,WSW,255,10.0,18.0,26,0.00,,,0.00,844.000000,,2013-08-10 17:52:00,
2013-08-10 12:01:00,74.0,37.0,-100.00,WSW,255,10.0,18.0,26,0.00,,,0.00,844.000000,,2013-08-10 18:01:00,
2013-08-10 12:11:00,74.0,37.0,-100.00,WSW,255,10.0,18.0,26,0.00,,,0.00,844.000000,,2013-08-10 18:11:00,
2013-08-10 12:23:00,74.0,37.0,-100.00,WSW,255,10.0,18.0,26,0.00,,,0.00,844.000000,,2013-08-10 18:23:00,
2013-08-10 12:32:00,74.0,37.0,-100.00,WSW,255,10.0,18.0,26,0.00,,,0.00,844.000000,,2013-08-10 18:32:00,
2013-08-10 12:52:00,72.0,39.0,-100.00,WSW,257,16.0,26.0,30,0.00,,,0.00,946.000000,,2013-08-10 18:52:00,
2013-08-10 13:02:00,72.0,39.0,-100.00,WSW,257,16.0,26.0,30,0.00,,,0.00,946.000000,,2013-08-10 19:02:00,
2013-08-10 13:11:00,72.0,39.0,-100.00,WSW,257,16.0,26.0,30,0.00,,,0.00,946.000000,,2013-08-10 19:11:00,
2013-08-10 13:22:00,72.0,39.0,-100.00,WSW,257,16.0,26.0,30,0.00,,,0.00,946.000000,,2013-08-10 19:22:00,
2013-08-10 13:32:00,72.0,39.0,-100.00,WSW,257,16.0,26.0,30,0.00,,,0.00,946.000000,,2013-08-10 19:32:00,
2013-08-10 13:53:00,72.0,38.0,-100.00,West,273,18.0,30.0,29,0.00,,,0.00,938.000000,,2013-08-10 19:53:00,
2013-08-10 14:02:00,72.0,38.0,-100.00,West,273,18.0,30.0,29,0.00,,,0.00,938.000000,,2013-08-10 20:02:00,
2013-08-10 14:11:00,72.0,38.0,-100.00,West,273,18.0,30.0,29,0.00,,,0.00,938.000000,,2013-08-10 20:11:00,
2013-08-10 14:22:00,72.0,38.0,-100.00,West,273,18.0,30.0,29,0.00,,,0.00,938.000000,,2013-08-10 20:22:00,
2013-08-10 14:33:00,72.0,38.0,-100.00,West,273,18.0,30.0,29,0.00,,,0.00,938.000000,,2013-08-10 20:33:00,
2013-08-10 14:53:00,71.0,37.0,-100.00,West,276,14.0,31.0,29,0.00,,,0.00,658.000000,,2013-08-10 20:53:00,
2013-08-10 15:02:00,71.0,37.0,-100.00,West,276,14.0,31.0,29,0.00,,,0.00,658.000000,,2013-08-10 21:02:00,
2013-08-10 15:12:00,71.0,37.0,-100.00,West,276,14.0,31.0,29,0.00,,,0.00,658.000000,,2013-08-10 21:12:00,
2013-08-10 15:22:00,71.0,37.0,-100.00,West,276,14.0,31.0,29,0.00,,,0.00,658.000000,,2013-08-10 21:22:00,
2013-08-10 15:32:00,71.0,37.0,-100.00,West,276,14.0,31.0,29,0.00,,,0.00,658.000000,,2013-08-10 21:32:00,
2013-08-10 15:52:00,72.0,36.0,-100.00,West,269,13.0,24.0,27,0.00,,,0.00,458.000000,,2013-08-10 21:52:00,
2013-08-10 16:01:00,72.0,36.0,-100.00,West,269,13.0,24.0,27,0.00,,,0.00,458.000000,,2013-08-10 22:01:00,
2013-08-10 16:11:00,72.0,36.0,-100.00,West,269,13.0,24.0,27,0.00,,,0.00,458.000000,,2013-08-10 22:11:00,
2013-08-10 16:21:00,72.0,36.0,-100.00,West,269,13.0,24.0,27,0.00,,,0.00,458.000000,,2013-08-10 22:21:00,
2013-08-10 16:32:00,72.0,36.0,-100.00,West,269,13.0,24.0,27,0.00,,,0.00,458.000000,,2013-08-10 22:32:00,
2013-08-10 16:52:00,71.0,36.0,-100.00,WSW,244,14.0,25.0,28,0.00,,,0.00,265.000000,,2013-08-10 22:52:00,
2013-08-10 17:01:00,71.0,36.0,-100.00,WSW,244,14.0,25.0,28,0.00,,,0.00,265.000000,,2013-08-10 23:01:00,
2013-08-10 17:12:00,71.0,36.0,-100.00,WSW,244,14.0,25.0,28,0.00,,,0.00,265.000000,,2013-08-10 23:12:00,
2013-08-10 17:22:00,71.0,36.0,-100.00,WSW,244,14.0,25.0,28,0.00,,,0.00,265.000000,,2013-08-10 23:22:00,
2013-08-10 17:32:00,71.0,36.0,-100.00,WSW,244,14.0,25.0,28,0.00,,,0.00,265.000000,,2013-08-10 23:32:00,
2013-08-10 17:53:00,64.0,43.0,-100.00,SSE,157,11.0,28.0,47,0.00,,,0.00,102.000000,,2013-08-10 23:53:00,
2013-08-10 18:02:00,64.0,43.0,-100.00,SSE,157,11.0,28.0,47,0.00,,,0.00,102.000000,,2013-08-11 00:02:00,
2013-08-10 18:11:00,64.0,43.0,-100.00,SSE,157,11.0,28.0,47,0.00,,,0.00,102.000000,,2013-08-11 00:11:00,
2013-08-10 18:22:00,64.0,43.0,-100.00,SSE,157,11.0,28.0,47,0.00,,,0.00,102.000000,,2013-08-11 00:22:00,
2013-08-10 18:32:00,64.0,43.0,-100.00,SSE,157,11.0,28.0,47,0.00,,,0.00,102.000000,,2013-08-11 00:32:00,
2013-08-10 18:52:00,65.0,43.0,-100.00,SW,232,2.0,11.0,44,0.00,,,0.00,167.000000,,2013-08-11 00:52:00,
2013-08-10 19:01:00,65.0,43.0,-100.00,SW,232,2.0,11.0,44,0.00,,,0.00,167.000000,,2013-08-11 01:01:00,
2013-08-10 19:11:00,65.0,43.0,-100.00,SW,232,2.0,11.0,44,0.00,,,0.00,167.000000,,2013-08-11 01:11:00,
2013-08-10 19:22:00,65.0,43.0,-100.00,SW,232,2.0,11.0,44,0.00,,,0.00,167.000000,,2013-08-11 01:22:00,
2013-08-10 19:32:00,65.0,43.0,-100.00,SW,232,2.0,11.0,44,0.00,,,0.00,167.000000,,2013-08-11 01:32:00,
2013-08-10 19:54:00,60.0,46.0,-100.00,SW,231,6.0,14.0,59,0.00,,,0.00,86.000000,,2013-08-11 01:54:00,
2013-08-10 20:02:00,60.0,46.0,-100.00,SW,231,6.0,14.0,59,0.00,,,0.00,86.000000,,2013-08-11 02:02:00,
2013-08-10 20:11:00,60.0,46.0,-100.00,SW,231,6.0,14.0,59,0.00,,,0.00,86.000000,,2013-08-11 02:11:00,
2013-08-10 20:22:00,60.0,46.0,-100.00,SW,231,6.0,14.0,59,0.00,,,0.00,86.000000,,2013-08-11 02:22:00,
2013-08-10 20:32:00,60.0,46.0,-100.00,SW,231,6.0,14.0,59,0.00,,,0.00,86.000000,,2013-08-11 02:32:00,
2013-08-10 20:34:00,56.0,47.0,-100.00,South,190,7.0,15.0,72,0.00,,,0.00,42.000000,,2013-08-11 02:34:00,
2013-08-10 20:57:00,56.0,47.0,-100.00,South,190,7.0,15.0,72,0.00,,,0.00,42.000000,,2013-08-11 02:57:00,
2013-08-10 21:05:00,56.0,47.0,-100.00,South,190,7.0,15.0,72,0.00,,,0.00,42.000000,,2013-08-11 03:05:00,
2013-08-10 21:16:00,56.0,47.0,-100.00,South,190,7.0,15.0,72,0.00,,,0.00,42.000000,,2013-08-11 03:16:00,
2013-08-10 21:56:00,55.0,47.0,-100.00,WSW,240,7.0,13.0,75,0.00,,,0.00,0.000000,,2013-08-11 03:56:00,
2013-08-10 22:01:00,55.0,47.0,-100.00,WSW,240,7.0,13.0,75,0.00,,,0.00,0.000000,,2013-08-11 04:01:00,
2013-08-10 22:12:00,55.0,47.0,-100.00,WSW,240,7.0,13.0,75,0.00,,,0.00,0.000000,,2013-08-11 04:12:00,
2013-08-10 22:22:00,55.0,47.0,-100.00,WSW,240,7.0,13.0,75,0.00,,,0.00,0.000000,,2013-08-11 04:22:00,
2013-08-10 22:32:00,55.0,47.0,-100.00,WSW,240,7.0,13.0,75,0.00,,,0.00,0.000000,,2013-08-11 04:32:00,
2013-08-10 22:34:00,55.0,47.0,-100.00,SW,232,6.0,9.0,75,0.00,,,0.00,0.000000,,2013-08-11 04:34:00,
2013-08-10 22:53:00,55.0,47.0,-100.00,SW,232,6.0,9.0,75,0.00,,,0.00,0.000000,,2013-08-11 04:53:00,
2013-08-10 23:02:00,55.0,47.0,-100.00,SW,232,6.0,9.0,75,0.00,,,0.00,0.000000,,2013-08-11 05:02:00,
2013-08-10 23:23:00,55.0,47.0,-100.00,SW,232,6.0,9.0,75,0.00,,,0.00,0.000000,,2013-08-11 05:23:00,
2013-08-10 23:34:00,55.0,45.0,-100.00,SSW,209,2.0,7.0,70,0.00,,,0.00,0.000000,,2013-08-11 05:34:00,